Time;durP1;ratioP1;P1;durP2;ratioP2;P2;SDS_P1;SDS_P2;PMS_P1;PMS_P2;Temp;Humidity;BMP_temperature;BMP_pressure;BME280_temperature;BME280_humidity;BME280_pressure;Samples;Min_cycle;Max_cycle;Signal;HPM_P1;HPM_P2
2023/09/28 00:01:22;;;;;;;;;;;24.40;58.30;;;;;;5087067;28;42918;-85
2023/09/28 00:03:48;;;;;;;;;;;24.20;56.30;;;;;;5086872;28;43019;-86
2023/09/28 00:06:14;;;;;;;;;;;24.40;58.20;;;;;;5087136;28;42822;-86
2023/09/28 00:08:39;;;;;;;;;;;24.20;57.70;;;;;;5086899;28;43004;-85
2023/09/28 00:11:05;;;;;;;;;;;24.00;57.70;;;;;;5086938;28;42963;-84
2023/09/28 00:13:31;;;;;;;;;;;24.10;57.70;;;;;;5087167;28;43151;-82
2023/09/28 00:15:57;;;;;;;;;;;24.20;57.70;;;;;;5086509;28;42995;-80
2023/09/28 00:18:23;;;;;;;;;;;24.00;57.60;;;;;;5086424;28;43430;-82
2023/09/28 00:20:49;;;;;;;;;;;24.20;57.90;;;;;;5084066;27;44807;-85
2023/09/28 00:23:16;;;;;;;;;;;24.10;58.00;;;;;;5086664;28;43160;-84
2023/09/28 00:25:41;;;;;;;;;;;24.20;57.90;;;;;;5086456;28;43411;-80
2023/09/28 00:28:07;;;;;;;;;;;24.40;57.20;;;;;;5086575;28;43024;-84
2023/09/28 00:30:32;;;;;;;;;;;24.10;57.60;;;;;;5086150;28;43739;-85
2023/09/28 00:32:58;;;;;;;;;;;24.30;57.70;;;;;;5086223;28;42956;-86
2023/09/28 00:35:25;;;;;;;;;;;24.20;57.60;;;;;;5086123;28;42933;-83
2023/09/28 00:37:50;;;;;;;;;;;24.30;57.60;;;;;;5086781;28;42868;-80
2023/09/28 00:40:36;;;;;;;;;;;24.30;57.40;;;;;;5085715;28;43658;-83
2023/09/28 00:43:04;;;;;;;;;;;24.30;57.40;;;;;;5086544;28;42753;-81
2023/09/28 00:45:29;;;;;;;;;;;24.20;57.30;;;;;;5085777;28;44474;-86
2023/09/28 00:47:58;;;;;;;;;;;24.00;57.40;;;;;;5085906;28;42985;-79
2023/09/28 00:50:24;;;;;;;;;;;24.10;57.60;;;;;;5086180;28;43504;-80
2023/09/28 00:52:52;;;;;;;;;;;24.20;57.50;;;;;;5086610;28;42964;-86
2023/09/28 00:55:19;;;;;;;;;;;24.20;57.30;;;;;;5086058;28;43535;-81
2023/09/28 00:57:46;;;;;;;;;;;24.10;57.40;;;;;;5085877;28;42823;-84
2023/09/28 01:00:25;;;;;;;;;;;24.30;57.60;;;;;;5086217;28;43791;-80
2023/09/28 01:02:52;;;;;;;;;;;24.00;57.10;;;;;;5086247;28;43037;-85
2023/09/28 01:05:18;;;;;;;;;;;24.00;57.00;;;;;;5085858;28;44335;-83
2023/09/28 01:07:43;;;;;;;;;;;24.00;57.60;;;;;;5086311;28;42970;-80
2023/09/28 01:10:12;;;;;;;;;;;23.90;57.70;;;;;;5086058;28;42954;-86
2023/09/28 01:12:39;;;;;;;;;;;23.90;58.20;;;;;;5086184;28;42926;-85
2023/09/28 01:15:11;;;;;;;;;;;23.90;58.00;;;;;;5085966;28;43581;-79
2023/09/28 01:17:40;;;;;;;;;;;23.80;55.80;;;;;;5086305;28;42961;-80
2023/09/28 01:20:16;;;;;;;;;;;24.00;55.80;;;;;;5085627;28;42788;-86
2023/09/28 01:22:41;;;;;;;;;;;23.90;55.80;;;;;;5086142;28;42862;-84
2023/09/28 01:25:08;;;;;;;;;;;23.90;57.80;;;;;;5085616;28;43693;-85
2023/09/28 01:27:34;;;;;;;;;;;24.00;57.60;;;;;;5084855;28;43021;-81
2023/09/28 01:29:59;;;;;;;;;;;24.10;57.60;;;;;;5084866;28;42780;-83
2023/09/28 01:32:25;;;;;;;;;;;24.90;57.70;;;;;;5084058;27;42981;-85
2023/09/28 01:34:50;;;;;;;;;;;24.00;56.80;;;;;;5085344;28;42848;-85
2023/09/28 01:37:17;;;;;;;;;;;23.90;57.40;;;;;;5085426;27;42851;-85
2023/09/28 01:39:42;;;;;;;;;;;24.00;57.30;;;;;;5085243;28;42788;-84
2023/09/28 01:42:08;;;;;;;;;;;23.90;57.40;;;;;;5085451;28;42921;-83
2023/09/28 01:44:33;;;;;;;;;;;24.00;57.40;;;;;;5085639;28;43024;-84
2023/09/28 01:46:59;;;;;;;;;;;23.80;57.40;;;;;;5085866;28;42836;-85
2023/09/28 01:49:24;;;;;;;;;;;23.80;57.50;;;;;;5085457;28;42863;-85
2023/09/28 01:51:50;;;;;;;;;;;23.90;57.70;;;;;;5085646;28;42926;-86
2023/09/28 01:54:15;;;;;;;;;;;23.90;57.70;;;;;;5085240;28;43655;-86
2023/09/28 01:56:41;;;;;;;;;;;23.80;57.50;;;;;;5085341;28;43162;-86
2023/09/28 01:59:06;;;;;;;;;;;23.70;57.50;;;;;;5085647;28;42922;-81
2023/09/28 02:01:32;;;;;;;;;;;24.00;57.80;;;;;;5084713;28;42911;-85
2023/09/28 02:03:57;;;;;;;;;;;24.00;57.80;;;;;;5084407;28;42863;-85
2023/09/28 02:06:24;;;;;;;;;;;23.90;57.60;;;;;;5084034;28;43061;-84
2023/09/28 02:08:49;;;;;;;;;;;23.90;57.60;;;;;;5085633;28;43197;-82
2023/09/28 02:11:15;;;;;;;;;;;23.90;57.60;;;;;;5084770;28;42910;-84
2023/09/28 02:13:41;;;;;;;;;;;23.80;57.70;;;;;;5084417;28;42971;-83
2023/09/28 02:16:11;;;;;;;;;;;23.80;57.70;;;;;;5083715;28;43085;-86
2023/09/28 02:18:37;;;;;;;;;;;23.80;55.60;;;;;;5085110;28;42932;-81
2023/09/28 02:21:03;;;;;;;;;;;23.80;57.80;;;;;;5065006;28;43015;-85
2023/09/28 02:23:28;;;;;;;;;;;23.60;57.60;;;;;;5063565;28;43619;-83
2023/09/28 02:25:54;;;;;;;;;;;23.80;58.00;;;;;;5063857;28;43046;-84
2023/09/28 02:28:19;;;;;;;;;;;23.50;57.90;;;;;;5063648;28;42906;-85
2023/09/28 02:30:45;;;;;;;;;;;23.80;57.90;;;;;;5064138;28;43089;-79
2023/09/28 02:33:11;;;;;;;;;;;23.50;57.60;;;;;;5063369;28;43383;-82
2023/09/28 02:35:37;;;;;;;;;;;23.90;57.80;;;;;;5063991;28;43110;-81
2023/09/28 02:38:02;;;;;;;;;;;23.80;57.60;;;;;;5062997;28;42970;-83
2023/09/28 02:40:29;;;;;;;;;;;23.80;57.30;;;;;;5064071;28;42899;-80
2023/09/28 02:42:55;;;;;;;;;;;23.70;57.80;;;;;;5063969;28;43337;-85
2023/09/28 02:45:21;;;;;;;;;;;23.90;58.40;;;;;;5067429;28;42935;-84
2023/09/28 02:47:47;;;;;;;;;;;23.80;58.50;;;;;;5081945;28;43832;-85
2023/09/28 02:50:14;;;;;;;;;;;23.60;58.10;;;;;;5079134;28;42866;-80
2023/09/28 02:52:40;;;;;;;;;;;23.70;57.90;;;;;;5087758;28;43299;-86
2023/09/28 02:55:07;;;;;;;;;;;23.70;58.70;;;;;;5085916;28;42974;-86
2023/09/28 02:57:33;;;;;;;;;;;23.50;57.20;;;;;;5087322;28;43427;-85
2023/09/28 02:59:59;;;;;;;;;;;23.50;58.20;;;;;;5087480;28;42937;-81
2023/09/28 03:02:25;;;;;;;;;;;23.70;58.10;;;;;;5086173;27;43652;-83
2023/09/28 03:04:50;;;;;;;;;;;23.60;57.90;;;;;;5088073;28;43081;-80
2023/09/28 03:07:16;;;;;;;;;;;23.80;57.80;;;;;;5087206;28;43473;-84
2023/09/28 03:09:42;;;;;;;;;;;23.80;57.80;;;;;;5087480;28;42737;-86
2023/09/28 03:12:08;;;;;;;;;;;23.70;57.90;;;;;;5087969;28;42847;-85
2023/09/28 03:14:34;;;;;;;;;;;23.90;57.80;;;;;;5086946;28;42806;-86
2023/09/28 03:16:59;;;;;;;;;;;23.80;58.00;;;;;;5087024;28;42978;-86
2023/09/28 03:19:25;;;;;;;;;;;23.70;57.90;;;;;;5087284;28;43029;-81
2023/09/28 03:21:50;;;;;;;;;;;23.50;57.80;;;;;;5086565;28;42948;-87
2023/09/28 03:24:16;;;;;;;;;;;23.50;57.80;;;;;;5086966;28;42990;-87
2023/09/28 03:26:41;;;;;;;;;;;23.60;57.70;;;;;;5086849;28;43159;-87
2023/09/28 03:29:07;;;;;;;;;;;23.60;57.60;;;;;;5086030;27;43061;-87
2023/09/28 03:31:33;;;;;;;;;;;23.60;57.70;;;;;;5087026;28;42980;-87
2023/09/28 03:33:59;;;;;;;;;;;23.70;57.60;;;;;;5086470;28;42968;-86
2023/09/28 03:36:25;;;;;;;;;;;23.80;57.90;;;;;;5086893;28;43908;-86
2023/09/28 03:38:50;;;;;;;;;;;23.70;57.70;;;;;;5087123;28;42845;-81
2023/09/28 03:41:17;;;;;;;;;;;23.70;57.80;;;;;;5086188;28;42912;-86
2023/09/28 03:43:43;;;;;;;;;;;23.60;57.80;;;;;;5087258;28;42930;-87
2023/09/28 03:46:09;;;;;;;;;;;23.60;58.00;;;;;;5085317;28;43034;-81
2023/09/28 03:48:34;;;;;;;;;;;23.50;57.90;;;;;;5084802;28;42920;-87
2023/09/28 03:51:00;;;;;;;;;;;23.60;58.00;;;;;;5086315;28;42953;-87
2023/09/28 03:53:26;;;;;;;;;;;23.50;57.90;;;;;;5086338;27;42949;-88
2023/09/28 03:55:52;;;;;;;;;;;23.60;57.90;;;;;;5085157;27;42982;-87
2023/09/28 03:58:17;;;;;;;;;;;23.60;57.40;;;;;;5084292;27;43005;-86
2023/09/28 04:00:43;;;;;;;;;;;23.70;57.90;;;;;;5086139;28;43311;-81
2023/09/28 04:03:11;;;;;;;;;;;23.60;57.30;;;;;;5086854;28;42934;-86
2023/09/28 04:05:37;;;;;;;;;;;23.70;57.90;;;;;;5086569;28;42894;-87
2023/09/28 04:08:02;;;;;;;;;;;23.50;57.80;;;;;;5084905;28;43010;-87
2023/09/28 04:10:28;;;;;;;;;;;23.60;57.70;;;;;;5086384;28;42873;-86
2023/09/28 04:12:54;;;;;;;;;;;23.70;57.70;;;;;;5086792;28;43019;-87
2023/09/28 04:15:19;;;;;;;;;;;23.50;57.80;;;;;;5085365;28;43335;-87
2023/09/28 04:17:45;;;;;;;;;;;23.50;57.70;;;;;;5086442;28;42872;-84
2023/09/28 04:20:10;;;;;;;;;;;23.60;57.80;;;;;;5086535;28;43652;-87
2023/09/28 04:22:36;;;;;;;;;;;23.40;57.00;;;;;;5085065;28;43099;-87
2023/09/28 04:25:02;;;;;;;;;;;23.50;57.60;;;;;;5085759;28;43570;-87
2023/09/28 04:27:27;;;;;;;;;;;23.90;57.80;;;;;;5086291;27;42973;-86
2023/09/28 04:29:54;;;;;;;;;;;23.70;57.80;;;;;;5085142;28;44097;-85
2023/09/28 04:32:20;;;;;;;;;;;23.50;57.60;;;;;;5084253;28;42928;-85
2023/09/28 04:34:45;;;;;;;;;;;23.50;57.50;;;;;;5086877;28;43653;-81
2023/09/28 04:37:12;;;;;;;;;;;23.50;57.10;;;;;;5086312;28;42895;-86
2023/09/28 04:39:37;;;;;;;;;;;23.70;57.10;;;;;;5085105;28;43495;-87
2023/09/28 04:42:03;;;;;;;;;;;23.60;57.80;;;;;;5086052;28;43043;-85
2023/09/28 04:44:29;;;;;;;;;;;23.80;57.50;;;;;;5085332;27;42905;-86
2023/09/28 04:46:55;;;;;;;;;;;23.60;57.60;;;;;;5084861;28;42973;-87
2023/09/28 04:49:21;;;;;;;;;;;23.20;57.80;;;;;;5085282;28;43619;-86
2023/09/28 04:51:47;;;;;;;;;;;23.50;58.10;;;;;;5083903;28;43053;-85
2023/09/28 04:54:13;;;;;;;;;;;23.40;58.20;;;;;;5085402;28;43077;-86
2023/09/28 04:56:39;;;;;;;;;;;23.40;58.20;;;;;;5084600;28;43067;-86
2023/09/28 04:59:04;;;;;;;;;;;23.40;58.20;;;;;;5084718;28;42956;-87
2023/09/28 05:01:30;;;;;;;;;;;23.30;58.20;;;;;;5085459;28;42788;-87
2023/09/28 05:03:56;;;;;;;;;;;23.40;58.00;;;;;;5085622;28;42960;-86
2023/09/28 05:06:23;;;;;;;;;;;23.80;58.10;;;;;;5084274;28;43031;-86
2023/09/28 05:08:49;;;;;;;;;;;24.20;57.20;;;;;;5081906;28;43191;-84
2023/09/28 05:11:15;;;;;;;;;;;23.50;58.30;;;;;;5108451;27;42977;-85
2023/09/28 05:13:41;;;;;;;;;;;23.70;57.60;;;;;;5085684;28;43005;-84
2023/09/28 05:16:07;;;;;;;;;;;23.30;57.80;;;;;;5081946;28;42978;-83
2023/09/28 05:18:33;;;;;;;;;;;23.80;57.70;;;;;;5084263;28;45514;-84
2023/09/28 05:20:58;;;;;;;;;;;24.00;57.90;;;;;;5084869;28;42921;-83
2023/09/28 05:23:25;;;;;;;;;;;23.70;57.20;;;;;;5084921;28;43087;-83
2023/09/28 05:25:50;;;;;;;;;;;23.80;57.10;;;;;;5084871;28;42954;-84
2023/09/28 05:28:16;;;;;;;;;;;23.90;57.30;;;;;;5083130;27;43159;-84
2023/09/28 05:30:41;;;;;;;;;;;23.90;57.30;;;;;;5081554;28;43037;-85
2023/09/28 05:33:07;;;;;;;;;;;23.80;57.20;;;;;;5082352;27;45842;-89
2023/09/28 05:35:32;;;;;;;;;;;23.90;57.30;;;;;;5084004;28;43046;-83
2023/09/28 05:37:58;;;;;;;;;;;23.80;57.20;;;;;;5080161;28;44237;-87
2023/09/28 05:40:23;;;;;;;;;;;23.80;57.90;;;;;;5088475;27;43126;-82
2023/09/28 05:42:49;;;;;;;;;;;23.70;58.00;;;;;;5084205;28;43092;-80
2023/09/28 05:45:14;;;;;;;;;;;23.80;58.00;;;;;;5079048;28;43137;-78
2023/09/28 05:47:40;;;;;;;;;;;23.80;58.00;;;;;;5081918;28;44173;-80
2023/09/28 05:50:07;;;;;;;;;;;23.80;57.90;;;;;;5088395;27;42980;-79
2023/09/28 05:52:33;;;;;;;;;;;23.70;57.80;;;;;;5081433;28;43932;-79
2023/09/28 05:54:58;;;;;;;;;;;23.80;58.30;;;;;;5082180;28;43085;-80
2023/09/28 05:57:24;;;;;;;;;;;23.80;58.40;;;;;;5083618;28;43714;-79
2023/09/28 05:59:49;;;;;;;;;;;23.50;58.30;;;;;;5084749;28;42929;-79
2023/09/28 06:02:15;;;;;;;;;;;23.70;58.40;;;;;;5082383;28;43543;-80
2023/09/28 06:04:41;;;;;;;;;;;23.80;58.60;;;;;;5079371;27;43094;-80
2023/09/28 06:07:07;;;;;;;;;;;23.80;58.20;;;;;;5082277;28;43859;-79
2023/09/28 06:09:33;;;;;;;;;;;23.60;58.20;;;;;;5084379;28;43072;-79
2023/09/28 06:12:00;;;;;;;;;;;23.80;58.70;;;;;;5084329;28;43771;-80
2023/09/28 06:14:25;;;;;;;;;;;23.70;58.70;;;;;;5084199;28;43016;-80
2023/09/28 06:16:51;;;;;;;;;;;23.70;58.70;;;;;;5084011;28;43048;-80
2023/09/28 06:19:16;;;;;;;;;;;23.80;58.10;;;;;;5086883;27;43036;-80
2023/09/28 06:21:42;;;;;;;;;;;23.70;58.80;;;;;;5084974;28;43786;-80
2023/09/28 06:24:07;;;;;;;;;;;23.80;58.80;;;;;;5085835;28;42947;-80
2023/09/28 06:26:33;;;;;;;;;;;23.80;58.90;;;;;;5090059;27;43135;-80
2023/09/28 06:28:58;;;;;;;;;;;23.90;58.90;;;;;;5088195;28;42905;-80
2023/09/28 06:31:24;;;;;;;;;;;23.90;58.90;;;;;;5088024;28;43514;-80
2023/09/28 06:33:49;;;;;;;;;;;23.90;59.10;;;;;;5088320;28;42917;-80
2023/09/28 06:36:16;;;;;;;;;;;24.00;59.00;;;;;;5086919;28;43361;-80
2023/09/28 06:38:42;;;;;;;;;;;23.90;58.10;;;;;;5087239;28;43164;-80
2023/09/28 06:41:08;;;;;;;;;;;23.90;59.30;;;;;;5087377;28;42949;-80
2023/09/28 06:43:33;;;;;;;;;;;24.00;59.40;;;;;;5085952;28;43020;-80
2023/09/28 06:45:59;;;;;;;;;;;23.90;59.30;;;;;;5087507;28;42929;-80
2023/09/28 06:48:26;;;;;;;;;;;24.00;59.40;;;;;;5087670;28;42944;-80
2023/09/28 06:50:52;;;;;;;;;;;24.00;59.40;;;;;;5087494;28;43496;-80
2023/09/28 06:53:18;;;;;;;;;;;23.80;59.30;;;;;;5087710;28;42956;-80
2023/09/28 06:55:45;;;;;;;;;;;24.10;59.30;;;;;;5087111;28;42850;-80
2023/09/28 06:58:14;;;;;;;;;;;24.10;59.20;;;;;;5086862;28;43047;-80
2023/09/28 07:00:40;;;;;;;;;;;24.00;57.50;;;;;;5086627;28;43015;-80
2023/09/28 07:03:06;;;;;;;;;;;23.90;59.50;;;;;;5086846;28;42926;-80
2023/09/28 07:05:33;;;;;;;;;;;23.90;59.60;;;;;;5085371;28;43330;-81
2023/09/28 07:07:59;;;;;;;;;;;23.90;59.40;;;;;;5087511;28;43025;-81
2023/09/28 07:10:25;;;;;;;;;;;24.10;60.30;;;;;;5087420;28;43398;-80
2023/09/28 07:12:50;;;;;;;;;;;23.80;59.70;;;;;;5086701;28;42995;-81
2023/09/28 07:15:16;;;;;;;;;;;24.00;59.60;;;;;;5082981;28;44091;-79
2023/09/28 07:17:42;;;;;;;;;;;24.00;59.80;;;;;;5077911;28;43100;-80
2023/09/28 07:20:09;;;;;;;;;;;24.00;60.10;;;;;;5086365;28;44804;-79
2023/09/28 07:22:34;;;;;;;;;;;24.00;59.60;;;;;;5083687;28;42875;-80
2023/09/28 07:25:00;;;;;;;;;;;24.00;60.00;;;;;;5085759;28;43036;-79
2023/09/28 07:27:31;;;;;;;;;;;24.10;59.90;;;;;;5086308;28;42941;-80
2023/09/28 07:29:57;;;;;;;;;;;24.10;58.30;;;;;;5083837;27;43454;-79
2023/09/28 07:32:22;;;;;;;;;;;23.90;59.70;;;;;;5084573;28;42961;-79
2023/09/28 07:34:48;;;;;;;;;;;24.00;59.80;;;;;;5086455;28;42996;-79
2023/09/28 07:37:15;;;;;;;;;;;24.00;59.50;;;;;;5085096;28;42990;-79
2023/09/28 07:39:40;;;;;;;;;;;24.00;59.60;;;;;;5085869;28;43021;-79
2023/09/28 07:42:08;;;;;;;;;;;24.00;59.60;;;;;;5086745;28;43146;-80
2023/09/28 07:44:34;;;;;;;;;;;24.00;59.10;;;;;;5086792;28;43902;-80
2023/09/28 07:47:00;;;;;;;;;;;23.90;59.60;;;;;;5087089;28;42996;-79
2023/09/28 07:49:25;;;;;;;;;;;24.00;59.80;;;;;;5084573;28;43674;-79
2023/09/28 07:51:51;;;;;;;;;;;23.90;59.70;;;;;;5084899;28;42996;-79
2023/09/28 07:54:17;;;;;;;;;;;24.10;59.80;;;;;;5086956;28;43823;-79
2023/09/28 07:56:42;;;;;;;;;;;24.00;59.80;;;;;;5086868;28;42814;-79
2023/09/28 07:59:08;;;;;;;;;;;24.00;59.40;;;;;;5086925;28;42888;-79
2023/09/28 08:01:37;;;;;;;;;;;24.10;59.80;;;;;;5086835;28;42928;-80
2023/09/28 08:04:02;;;;;;;;;;;24.10;58.50;;;;;;5084886;28;42927;-80
2023/09/28 08:06:28;;;;;;;;;;;24.10;60.40;;;;;;5086764;28;43050;-79
2023/09/28 08:08:53;;;;;;;;;;;24.10;60.40;;;;;;5087056;28;43388;-80
2023/09/28 08:11:19;;;;;;;;;;;24.20;60.60;;;;;;5086453;28;43088;-79
2023/09/28 08:13:44;;;;;;;;;;;24.00;60.80;;;;;;5086567;28;43777;-79
2023/09/28 08:16:10;;;;;;;;;;;24.00;60.70;;;;;;5087205;28;42793;-79
2023/09/28 08:18:35;;;;;;;;;;;22.50;60.00;;;;;;5086647;28;43705;-79
2023/09/28 08:21:03;;;;;;;;;;;24.10;60.70;;;;;;5086919;28;42815;-80
2023/09/28 08:23:30;;;;;;;;;;;24.10;60.50;;;;;;5085544;27;43039;-80
2023/09/28 08:25:55;;;;;;;;;;;24.10;60.50;;;;;;5089322;27;43041;-79
2023/09/28 08:28:22;;;;;;;;;;;24.30;60.40;;;;;;5093795;27;44637;-80
2023/09/28 08:30:48;;;;;;;;;;;24.20;60.00;;;;;;5089827;27;43713;-79
2023/09/28 08:33:15;;;;;;;;;;;24.20;59.70;;;;;;5090436;27;42898;-79
2023/09/28 08:35:46;;;;;;;;;;;24.20;59.30;;;;;;5095622;27;43181;-80
2023/09/28 08:38:12;;;;;;;;;;;24.20;59.40;;;;;;5095160;27;42920;-82
2023/09/28 08:40:39;;;;;;;;;;;24.30;58.70;;;;;;5095708;27;42959;-80
2023/09/28 08:43:05;;;;;;;;;;;24.20;58.60;;;;;;5086376;27;43575;-79
2023/09/28 08:45:32;;;;;;;;;;;24.20;59.10;;;;;;5085349;28;42855;-81
2023/09/28 08:47:59;;;;;;;;;;;24.20;59.30;;;;;;5086156;28;42915;-80
2023/09/28 08:50:31;;;;;;;;;;;24.20;59.40;;;;;;5084749;28;43022;-81
2023/09/28 08:52:57;;;;;;;;;;;24.20;58.70;;;;;;5086140;28;43524;-80
2023/09/28 08:55:23;;;;;;;;;;;24.30;58.90;;;;;;5086384;28;42999;-80
2023/09/28 08:57:49;;;;;;;;;;;24.20;58.90;;;;;;5086003;28;42872;-80
2023/09/28 09:00:15;;;;;;;;;;;24.20;58.60;;;;;;5085803;28;43237;-80
2023/09/28 09:02:42;;;;;;;;;;;24.50;58.10;;;;;;5086073;28;43603;-81
2023/09/28 09:05:07;;;;;;;;;;;24.20;58.00;;;;;;5082299;28;43074;-79
2023/09/28 09:07:34;;;;;;;;;;;24.30;57.50;;;;;;5085155;28;43006;-82
2023/09/28 09:10:00;;;;;;;;;;;24.40;57.90;;;;;;5085333;28;42934;-80
2023/09/28 09:12:28;;;;;;;;;;;24.20;57.70;;;;;;5083627;28;43268;-80
2023/09/28 09:14:53;;;;;;;;;;;24.20;57.60;;;;;;5085670;28;42969;-82
2023/09/28 09:17:19;;;;;;;;;;;24.40;57.20;;;;;;5085248;28;43700;-80
2023/09/28 09:19:45;;;;;;;;;;;24.10;57.30;;;;;;5085508;28;42929;-82
2023/09/28 09:22:25;;;;;;;;;;;24.20;56.50;;;;;;5085377;28;43763;-78
2023/09/28 09:24:54;;;;;;;;;;;24.30;55.10;;;;;;5084083;28;43164;-82
2023/09/28 09:27:26;;;;;;;;;;;24.40;55.20;;;;;;5083105;28;43832;-81
2023/09/28 09:29:56;;;;;;;;;;;24.30;55.20;;;;;;5084795;28;42862;-81
2023/09/28 09:32:22;;;;;;;;;;;24.20;56.80;;;;;;5082738;28;43558;-81
2023/09/28 09:34:50;;;;;;;;;;;24.30;58.30;;;;;;5085238;28;43056;-82
2023/09/28 09:37:16;;;;;;;;;;;24.20;58.90;;;;;;5084840;28;42976;-80
2023/09/28 09:39:41;;;;;;;;;;;24.30;58.70;;;;;;5092171;27;43100;-79
2023/09/28 09:42:08;;;;;;;;;;;24.40;58.10;;;;;;5085155;28;42942;-81
2023/09/28 09:44:34;;;;;;;;;;;24.20;58.70;;;;;;5085174;28;43009;-82
2023/09/28 09:47:00;;;;;;;;;;;24.30;58.80;;;;;;5085200;28;42973;-83
2023/09/28 09:49:26;;;;;;;;;;;24.30;58.70;;;;;;5085564;28;42972;-82
2023/09/28 09:51:52;;;;;;;;;;;24.30;58.30;;;;;;5082953;27;43259;-82
2023/09/28 09:54:19;;;;;;;;;;;24.30;57.70;;;;;;5106552;27;43108;-81
2023/09/28 09:56:46;;;;;;;;;;;24.40;57.50;;;;;;5083096;28;44605;-80
2023/09/28 09:59:15;;;;;;;;;;;24.40;57.60;;;;;;5081975;28;42977;-82
2023/09/28 10:01:42;;;;;;;;;;;24.20;57.70;;;;;;5084926;28;43651;-78
2023/09/28 10:04:12;;;;;;;;;;;24.20;56.90;;;;;;5085788;28;42969;-82
2023/09/28 10:06:39;;;;;;;;;;;24.50;57.20;;;;;;5083143;28;43677;-82
2023/09/28 10:09:10;;;;;;;;;;;24.40;56.70;;;;;;5084176;28;43284;-80
2023/09/28 10:11:38;;;;;;;;;;;24.10;56.60;;;;;;5084788;28;43497;-80
2023/09/28 10:14:04;;;;;;;;;;;24.50;56.70;;;;;;5085236;28;43055;-79
2023/09/28 10:16:34;;;;;;;;;;;24.30;56.10;;;;;;5084840;28;42882;-80
2023/09/28 10:19:00;;;;;;;;;;;24.40;56.60;;;;;;5084409;28;42913;-81
2023/09/28 10:21:25;;;;;;;;;;;24.40;56.60;;;;;;5083589;28;43779;-81
2023/09/28 10:23:56;;;;;;;;;;;24.40;56.70;;;;;;5085179;28;42769;-80
2023/09/28 10:26:28;;;;;;;;;;;24.40;54.80;;;;;;5082846;28;45616;-81
2023/09/28 10:29:01;;;;;;;;;;;24.40;56.20;;;;;;5084597;28;42969;-80
2023/09/28 10:31:35;;;;;;;;;;;24.50;54.80;;;;;;5083089;28;44563;-81
2023/09/28 10:34:02;;;;;;;;;;;24.50;54.60;;;;;;5084971;28;42862;-79
2023/09/28 10:36:28;;;;;;;;;;;24.60;56.50;;;;;;5079896;28;43527;-79
2023/09/28 10:39:16;;;;;;;;;;;24.50;56.40;;;;;;5084225;28;42937;-82
2023/09/28 10:41:49;;;;;;;;;;;24.60;54.30;;;;;;5084308;28;43379;-78
2023/09/28 10:44:16;;;;;;;;;;;24.50;54.30;;;;;;5082846;28;42867;-78
2023/09/28 10:46:42;;;;;;;;;;;24.50;56.00;;;;;;5082200;28;42970;-82
2023/09/28 10:49:07;;;;;;;;;;;24.40;55.80;;;;;;5084319;28;42960;-83
2023/09/28 10:51:33;;;;;;;;;;;24.40;55.70;;;;;;5083847;28;44247;-82
2023/09/28 10:54:03;;;;;;;;;;;24.60;55.50;;;;;;5084350;28;43098;-81
2023/09/28 10:56:29;;;;;;;;;;;24.40;56.00;;;;;;5083997;28;43491;-83
2023/09/28 10:58:56;;;;;;;;;;;24.60;55.80;;;;;;5084092;28;42929;-84
2023/09/28 11:01:21;;;;;;;;;;;24.50;55.60;;;;;;5083949;28;43376;-83
2023/09/28 11:03:50;;;;;;;;;;;23.80;54.90;;;;;;5083986;28;42984;-79
2023/09/28 11:06:16;;;;;;;;;;;24.60;55.80;;;;;;5084231;28;42947;-80
2023/09/28 11:08:42;;;;;;;;;;;24.70;55.50;;;;;;5085627;28;42934;-78
2023/09/28 11:11:08;;;;;;;;;;;24.70;55.70;;;;;;5083485;28;43047;-80
2023/09/28 11:13:34;;;;;;;;;;;24.80;55.90;;;;;;5085556;28;43196;-78
2023/09/28 11:15:59;;;;;;;;;;;24.70;55.20;;;;;;5084799;28;43403;-79
2023/09/28 11:18:26;;;;;;;;;;;24.70;55.50;;;;;;5087732;28;42961;-82
2023/09/28 11:20:54;;;;;;;;;;;24.70;55.60;;;;;;5085957;28;43079;-78
2023/09/28 11:23:19;;;;;;;;;;;24.60;55.60;;;;;;5087840;28;42944;-83
2023/09/28 11:25:45;;;;;;;;;;;24.70;55.20;;;;;;5087825;28;42938;-79
2023/09/28 11:28:11;;;;;;;;;;;24.80;55.70;;;;;;5086980;28;43058;-82
2023/09/28 11:30:37;;;;;;;;;;;24.80;55.80;;;;;;5087125;28;44471;-87
2023/09/28 11:33:03;;;;;;;;;;;24.70;55.60;;;;;;5087877;28;42954;-82
2023/09/28 11:35:30;;;;;;;;;;;24.60;55.10;;;;;;5084572;28;42974;-80
2023/09/28 11:37:59;;;;;;;;;;;25.10;55.40;;;;;;5086757;28;42889;-82
2023/09/28 11:40:25;;;;;;;;;;;24.70;53.40;;;;;;5086488;28;44370;-83
2023/09/28 11:42:56;;;;;;;;;;;24.80;55.40;;;;;;5079596;28;42963;-78
2023/09/28 11:45:33;;;;;;;;;;;24.70;53.30;;;;;;5085247;28;43775;-81
2023/09/28 11:48:05;;;;;;;;;;;24.80;55.10;;;;;;5110717;27;43102;-82
2023/09/28 11:50:31;;;;;;;;;;;24.90;53.30;;;;;;5083071;28;43693;-84
2023/09/28 11:52:57;;;;;;;;;;;24.60;55.60;;;;;;5084020;28;43127;-84
2023/09/28 11:55:23;;;;;;;;;;;24.70;55.30;;;;;;5085333;28;44079;-83
2023/09/28 11:57:48;;;;;;;;;;;24.70;55.70;;;;;;5085188;28;43055;-81
2023/09/28 12:00:21;;;;;;;;;;;24.70;55.10;;;;;;5085227;28;43655;-83
2023/09/28 12:02:47;;;;;;;;;;;24.70;55.20;;;;;;5085755;28;43311;-81
2023/09/28 12:05:13;;;;;;;;;;;24.70;55.70;;;;;;5085520;28;43419;-79
2023/09/28 12:07:39;;;;;;;;;;;24.80;55.60;;;;;;5086066;28;42868;-82
2023/09/28 12:10:05;;;;;;;;;;;24.80;55.80;;;;;;5086819;28;43461;-79
2023/09/28 12:12:31;;;;;;;;;;;24.70;55.20;;;;;;5086204;28;42892;-80
2023/09/28 12:14:56;;;;;;;;;;;24.90;55.60;;;;;;5086016;28;43585;-82
2023/09/28 12:17:22;;;;;;;;;;;24.60;55.60;;;;;;5086027;28;43062;-82
2023/09/28 12:19:47;;;;;;;;;;;24.70;55.80;;;;;;5087152;28;43241;-81
2023/09/28 12:22:13;;;;;;;;;;;24.70;55.30;;;;;;5087265;28;42802;-79
2023/09/28 12:24:38;;;;;;;;;;;24.70;55.30;;;;;;5086865;28;43470;-82
2023/09/28 12:27:06;;;;;;;;;;;24.80;55.70;;;;;;5085111;28;42949;-82
2023/09/28 12:29:32;;;;;;;;;;;24.80;55.60;;;;;;5086623;28;43593;-82
2023/09/28 12:31:58;;;;;;;;;;;25.00;55.50;;;;;;5086505;28;42881;-81
2023/09/28 12:34:26;;;;;;;;;;;24.80;55.30;;;;;;5086729;28;43553;-78
2023/09/28 12:36:53;;;;;;;;;;;24.90;55.30;;;;;;5092636;27;42945;-81
2023/09/28 12:39:21;;;;;;;;;;;24.90;56.00;;;;;;5079092;28;43555;-79
2023/09/28 12:41:48;;;;;;;;;;;24.90;55.80;;;;;;5058383;28;43347;-82
2023/09/28 12:44:13;;;;;;;;;;;25.50;55.80;;;;;;5056684;28;45591;-81
2023/09/28 12:46:39;;;;;;;;;;;24.90;56.30;;;;;;5076740;28;43399;-82
2023/09/28 12:49:05;;;;;;;;;;;24.90;55.60;;;;;;5055622;28;45200;-83
2023/09/28 12:51:31;;;;;;;;;;;24.90;55.50;;;;;;5082073;27;43285;-78
2023/09/28 12:53:57;;;;;;;;;;;24.90;55.60;;;;;;5086849;27;43800;-78
2023/09/28 12:56:23;;;;;;;;;;;24.90;55.70;;;;;;5086450;28;42975;-81
2023/09/28 12:58:49;;;;;;;;;;;24.80;55.50;;;;;;5086330;28;42803;-82
2023/09/28 13:01:15;;;;;;;;;;;24.80;56.00;;;;;;5094586;27;43076;-81
2023/09/28 13:03:40;;;;;;;;;;;24.80;56.00;;;;;;5085581;28;42963;-82
2023/09/28 13:06:09;;;;;;;;;;;24.90;56.00;;;;;;5085727;28;42941;-81
2023/09/28 13:08:35;;;;;;;;;;;24.90;55.90;;;;;;5084844;28;43680;-78
2023/09/28 13:11:02;;;;;;;;;;;24.90;55.70;;;;;;5084609;28;42922;-83
2023/09/28 13:13:27;;;;;;;;;;;24.90;55.50;;;;;;5082318;28;43570;-81
2023/09/28 13:15:54;;;;;;;;;;;25.00;55.40;;;;;;5080633;28;43050;-81
2023/09/28 13:18:20;;;;;;;;;;;24.80;55.50;;;;;;5070203;28;42890;-81
2023/09/28 13:20:46;;;;;;;;;;;25.00;55.80;;;;;;5068004;28;43017;-81
2023/09/28 13:23:12;;;;;;;;;;;24.80;55.60;;;;;;5084737;28;43008;-78
2023/09/28 13:25:38;;;;;;;;;;;24.90;55.90;;;;;;5084660;28;42817;-80
2023/09/28 13:28:07;;;;;;;;;;;24.80;55.80;;;;;;5085512;27;43057;-82
2023/09/28 13:30:38;;;;;;;;;;;24.80;55.60;;;;;;5085380;28;42952;-81
2023/09/28 13:33:04;;;;;;;;;;;24.90;55.60;;;;;;5085658;28;43018;-81
2023/09/28 13:35:30;;;;;;;;;;;25.10;55.10;;;;;;5085289;28;42974;-83
2023/09/28 13:37:56;;;;;;;;;;;25.00;55.10;;;;;;5085210;28;43714;-81
2023/09/28 13:40:32;;;;;;;;;;;24.90;55.40;;;;;;5085071;28;42976;-78
2023/09/28 13:42:59;;;;;;;;;;;24.80;54.00;;;;;;5078847;28;44538;-81
2023/09/28 13:45:28;;;;;;;;;;;24.90;55.30;;;;;;5074538;28;43008;-82
2023/09/28 13:47:53;;;;;;;;;;;25.00;53.40;;;;;;5064484;28;43632;-78
2023/09/28 13:50:19;;;;;;;;;;;25.00;55.20;;;;;;5065499;28;42863;-82
2023/09/28 13:52:45;;;;;;;;;;;24.90;55.10;;;;;;5084751;28;43465;-80
2023/09/28 13:55:15;;;;;;;;;;;24.90;55.10;;;;;;5084957;28;42860;-81
2023/09/28 13:57:42;;;;;;;;;;;24.90;55.30;;;;;;5083677;28;43857;-80
2023/09/28 14:00:14;;;;;;;;;;;24.90;54.30;;;;;;5096503;27;43008;-81
2023/09/28 14:02:41;;;;;;;;;;;25.10;54.60;;;;;;5084033;28;43067;-81
2023/09/28 14:05:07;;;;;;;;;;;25.10;54.40;;;;;;5084349;28;43063;-82
2023/09/28 14:07:33;;;;;;;;;;;24.90;54.20;;;;;;5085130;28;42945;-82
2023/09/28 14:09:59;;;;;;;;;;;24.90;54.10;;;;;;5083854;28;43038;-82
2023/09/28 14:12:25;;;;;;;;;;;24.90;53.60;;;;;;5085118;28;42902;-82